Time;durP1;ratioP1;P1;durP2;ratioP2;P2;SDS_P1;SDS_P2;PMS_P1;PMS_P2;Temp;Humidity;BMP_temperature;BMP_pressure;BME280_temperature;BME280_humidity;BME280_pressure;Samples;Min_cycle;Max_cycle;Signal;HPM_P1;HPM_P2
2021/07/18 00:01:52;;;;;;;70.32;66.68;;;20.90;99.90;;;;;;5068606;28;20258;-77
2021/07/18 00:04:27;;;;;;;43.33;41.22;;;20.90;99.90;;;;;;5071569;28;20249;-77
2021/07/18 00:06:54;;;;;;;54.70;51.65;;;20.90;99.90;;;;;;5071937;28;20225;-77
2021/07/18 00:09:22;;;;;;;48.58;46.15;;;20.80;99.90;;;;;;5068170;28;20574;-77
2021/07/18 00:19:59;;;;;;;55.65;52.83;;;20.80;99.90;;;;;;5070875;28;20241;-77
2021/07/18 00:25:14;;;;;;;56.55;53.70;;;20.80;99.90;;;;;;5066668;28;20209;-77
2021/07/18 00:41:06;;;;;;;68.28;64.40;;;20.50;99.90;;;;;;5066018;28;20683;-77
2021/07/18 00:43:33;;;;;;;58.55;55.53;;;20.60;99.90;;;;;;5070143;28;20194;-76
2021/07/18 00:46:01;;;;;;;73.35;69.60;;;20.50;99.90;;;;;;5076028;28;20228;-77
2021/07/18 00:56:35;;;;;;;68.88;65.32;;;20.30;99.90;;;;;;5069867;28;20293;-77
2021/07/18 01:09:53;;;;;;;84.90;80.43;;;20.00;99.90;;;;;;5066128;28;20239;-77
2021/07/18 01:15:07;;;;;;;85.35;80.85;;;20.00;99.90;;;;;;5070545;28;20209;-77
2021/07/18 01:23:07;;;;;;;68.93;65.53;;;19.90;99.90;;;;;;5071744;28;20209;-77
2021/07/18 01:36:19;;;;;;;96.32;91.15;;;19.70;99.90;;;;;;5068053;28;20197;-77
2021/07/18 01:39:02;;;;;;;83.18;78.55;;;19.70;99.90;;;;;;5067633;28;20231;-77
2021/07/18 01:46:56;;;;;;;95.55;90.80;;;19.60;99.90;;;;;;5073491;28;20197;-77
2021/07/18 02:00:10;;;;;;;112.38;106.72;;;19.40;99.90;;;;;;5069171;28;20210;-77
2021/07/18 02:05:20;;;;;;;102.53;96.93;;;19.30;99.90;;;;;;5064916;28;20216;-74
2021/07/18 02:07:48;;;;;;;120.65;114.65;;;19.30;99.90;;;;;;5065178;28;20225;-74
2021/07/18 02:10:18;;;;;;;126.85;120.25;;;19.30;99.90;;;;;;5068541;28;20193;-76
2021/07/18 02:15:27;;;;;;;135.65;129.02;;;19.30;99.90;;;;;;5064875;28;20265;-76
2021/07/18 02:17:54;;;;;;;120.05;114.03;;;19.20;99.90;;;;;;5064831;28;20632;-76
2021/07/18 02:20:23;;;;;;;110.15;104.60;;;19.20;99.90;;;;;;5070372;28;20201;-76
2021/07/18 02:22:52;;;;;;;129.80;123.63;;;19.10;99.90;;;;;;5069495;28;20213;-76
2021/07/18 02:28:08;;;;;;;65.15;61.75;;;19.10;99.90;;;;;;5069492;28;20214;-76
2021/07/18 02:30:35;;;;;;;79.68;75.78;;;19.10;99.90;;;;;;5066074;28;20228;-76
2021/07/18 02:33:02;;;;;;;100.43;95.05;;;19.00;99.90;;;;;;5073728;28;20202;-76
2021/07/18 02:40:53;;;;;;;32.40;30.55;;;18.80;99.90;;;;;;5073543;28;20201;-76
2021/07/18 02:43:20;;;;;;;46.17;43.72;;;18.70;99.90;;;;;;5069828;28;20247;-76
2021/07/18 02:45:47;;;;;;;50.28;47.60;;;18.70;99.90;;;;;;5074158;28;20206;-76
2021/07/18 02:48:14;;;;;;;67.40;63.95;;;18.70;99.90;;;;;;5072763;28;20221;-76
2021/07/18 02:50:41;;;;;;;69.70;66.18;;;18.70;99.90;;;;;;5069429;28;20210;-77
2021/07/18 02:53:11;;;;;;;61.40;58.10;;;18.70;99.90;;;;;;5075390;28;20201;-77
2021/07/18 02:55:38;;;;;;;109.50;104.28;;;18.70;99.90;;;;;;5070577;28;20362;-77
2021/07/18 03:00:48;;;;;;;102.72;97.57;;;18.70;99.90;;;;;;5079380;28;20212;-77
2021/07/18 03:03:15;;;;;;;75.35;71.50;;;18.70;99.90;;;;;;5077513;28;20224;-76
2021/07/18 03:05:42;;;;;;;69.13;65.57;;;18.60;99.90;;;;;;5072779;28;20232;-77
2021/07/18 03:13:46;;;;;;;66.18;62.67;;;18.60;99.90;;;;;;5067368;28;20197;-77
2021/07/18 03:18:54;;;;;;;34.55;32.60;;;18.50;99.90;;;;;;5067907;28;20261;-77
2021/07/18 03:21:21;;;;;;;45.67;42.95;;;18.50;99.90;;;;;;5076704;28;20196;-76
2021/07/18 03:23:48;;;;;;;115.18;109.07;;;18.40;99.90;;;;;;5069012;28;20221;-77
2021/07/18 03:29:12;;;;;;;67.68;64.03;;;18.30;99.90;;;;;;5067651;28;20263;-77
2021/07/18 03:34:27;;;;;;;131.38;124.82;;;18.10;99.90;;;;;;5072070;28;20652;-77
2021/07/18 03:45:13;;;;;;;100.25;94.97;;;18.00;99.90;;;;;;5069822;28;20209;-77
2021/07/18 03:47:41;;;;;;;154.18;146.13;;;17.90;99.90;;;;;;5068436;28;20225;-77
2021/07/18 03:58:12;;;;;;;131.77;125.13;;;17.90;99.90;;;;;;5066762;28;20231;-77
2021/07/18 04:00:40;;;;;;;41.05;38.90;;;17.90;99.90;;;;;;5069162;28;20252;-77
2021/07/18 04:03:07;;;;;;;140.68;133.55;;;17.90;99.90;;;;;;5068766;28;20226;-77
2021/07/18 04:13:44;;;;;;;151.40;143.77;;;18.00;99.90;;;;;;5068989;28;20194;-77
2021/07/18 04:16:27;;;;;;;146.45;138.77;;;18.10;99.90;;;;;;5069087;28;20201;-77
2021/07/18 04:21:43;;;;;;;144.68;137.43;;;18.10;99.90;;;;;;5073551;28;20553;-77
2021/07/18 04:32:14;;;;;;;159.65;151.82;;;17.90;99.90;;;;;;5067204;28;20251;-76
2021/07/18 04:34:43;;;;;;;83.07;78.68;;;18.00;99.90;;;;;;5070440;28;20355;-76
2021/07/18 04:37:10;;;;;;;128.73;122.55;;;18.00;99.90;;;;;;5068604;28;20206;-77
2021/07/18 04:42:19;;;;;;;149.27;142.25;;;18.10;99.90;;;;;;5071851;28;20244;-76
2021/07/18 04:44:46;;;;;;;107.90;102.50;;;18.00;99.90;;;;;;5069731;28;20197;-76
2021/07/18 04:47:15;;;;;;;112.95;106.70;;;18.10;99.90;;;;;;5066612;28;20202;-76
2021/07/18 04:49:41;;;;;;;127.13;120.68;;;18.20;99.90;;;;;;5066121;28;20229;-76
2021/07/18 04:52:10;;;;;;;131.45;125.07;;;18.20;99.90;;;;;;5067533;28;20205;-76
2021/07/18 04:54:40;;;;;;;117.40;111.45;;;18.30;99.90;;;;;;5066448;28;20201;-76
2021/07/18 04:57:07;;;;;;;90.72;85.75;;;18.30;99.90;;;;;;5077917;28;20632;-76
2021/07/18 05:02:18;;;;;;;65.63;62.00;;;18.40;99.90;;;;;;5073947;28;20279;-77
2021/07/18 05:15:32;;;;;;;91.68;86.93;;;18.80;99.90;;;;;;5076133;28;20219;-77
2021/07/18 05:18:10;;;;;;;81.70;77.00;;;18.60;99.90;;;;;;5072978;28;20235;-76
2021/07/18 05:20:38;;;;;;;56.95;53.70;;;18.70;99.90;;;;;;5074744;28;20215;-76
2021/07/18 05:23:05;;;;;;;72.78;67.82;;;18.70;99.90;;;;;;5076455;28;20650;-76
2021/07/18 05:33:36;;;;;;;131.75;124.65;;;18.90;99.90;;;;;;5066357;28;20201;-76
2021/07/18 05:36:02;;;;;;;216.35;203.73;;;18.90;99.90;;;;;;5069491;28;20259;-77
2021/07/18 05:38:29;;;;;;;145.07;137.77;;;19.00;99.90;;;;;;5070755;28;20227;-77
2021/07/18 05:54:21;;;;;;;117.57;111.38;;;19.30;99.90;;;;;;5064572;28;20221;-77
2021/07/18 05:56:48;;;;;;;206.15;195.30;;;19.40;99.90;;;;;;5076351;28;20205;-77
2021/07/18 05:59:15;;;;;;;201.23;190.45;;;19.40;99.90;;;;;;5066705;28;20213;-76
2021/07/18 06:12:27;;;;;;;42.83;40.25;;;19.50;99.90;;;;;;5075204;28;20262;-76
2021/07/18 06:14:54;;;;;;;53.90;50.85;;;19.60;99.90;;;;;;5068846;28;20197;-77
2021/07/18 06:17:21;;;;;;;147.20;139.55;;;19.70;99.90;;;;;;5070758;28;20271;-77
2021/07/18 06:19:49;;;;;;;142.85;135.45;;;19.70;99.90;;;;;;5071213;28;20224;-76
2021/07/18 06:22:16;;;;;;;43.42;40.90;;;19.80;99.90;;;;;;5072676;28;20201;-76
2021/07/18 06:24:43;;;;;;;49.90;46.85;;;20.10;99.90;;;;;;5070285;28;20228;-76
2021/07/18 06:27:10;;;;;;;43.45;41.08;;;20.30;99.90;;;;;;5070175;28;20206;-76
2021/07/18 06:29:37;;;;;;;38.20;36.00;;;20.50;99.90;;;;;;5069003;28;20229;-76
2021/07/18 06:32:05;;;;;;;44.08;41.42;;;20.80;99.90;;;;;;5072809;28;20197;-76
2021/07/18 06:34:32;;;;;;;27.42;25.83;;;21.10;99.90;;;;;;5080001;28;20205;-76
2021/07/18 06:37:01;;;;;;;20.90;19.40;;;21.30;99.90;;;;;;5069694;28;20259;-77
2021/07/18 06:39:28;;;;;;;18.50;17.40;;;21.60;99.90;;;;;;5069530;28;20292;-76
2021/07/18 06:41:55;;;;;;;20.08;15.90;;;21.90;99.90;;;;;;5074031;28;20206;-77
2021/07/18 06:44:22;;;;;;;14.35;13.40;;;22.10;99.90;;;;;;5073253;28;20235;-76
2021/07/18 06:46:49;;;;;;;13.07;12.18;;;22.40;99.90;;;;;;5070827;28;20232;-77
2021/07/18 06:49:15;;;;;;;20.70;19.42;;;22.60;99.90;;;;;;5069201;28;20228;-76
2021/07/18 06:51:42;;;;;;;15.18;14.27;;;22.90;99.90;;;;;;5072848;28;20240;-76
2021/07/18 06:54:11;;;;;;;15.32;14.38;;;23.20;99.90;;;;;;5074265;28;20737;-77
2021/07/18 06:56:38;;;;;;;12.73;11.57;;;23.40;99.90;;;;;;5071748;28;20205;-76
2021/07/18 06:59:07;;;;;;;12.75;12.05;;;23.50;99.90;;;;;;5072757;28;20267;-76
2021/07/18 07:01:34;;;;;;;12.32;11.45;;;23.60;99.90;;;;;;5078392;28;20612;-76
2021/07/18 07:04:01;;;;;;;10.50;9.52;;;23.80;99.90;;;;;;5068767;28;20287;-76
2021/07/18 07:06:28;;;;;;;6.32;5.82;;;24.00;99.90;;;;;;5069010;28;20205;-76
2021/07/18 07:08:55;;;;;;;5.45;2.30;;;24.10;99.90;;;;;;5077515;28;20458;-76
2021/07/18 07:11:23;;;;;;;7.32;6.72;;;24.30;99.90;;;;;;5072177;28;20246;-76
2021/07/18 07:13:52;;;;;;;5.43;2.70;;;24.40;99.90;;;;;;5071032;28;20468;-77
2021/07/18 07:16:19;;;;;;;9.75;9.13;;;24.40;99.90;;;;;;5067653;28;20216;-74
2021/07/18 07:18:47;;;;;;;8.52;7.97;;;24.40;99.90;;;;;;5073282;28;20210;-74
2021/07/18 07:21:14;;;;;;;22.90;21.80;;;24.50;99.90;;;;;;5071197;28;20717;-74
2021/07/18 07:23:41;;;;;;;7.22;6.63;;;24.60;99.90;;;;;;5068296;28;20265;-74
2021/07/18 07:26:08;;;;;;;29.35;27.80;;;24.80;99.90;;;;;;5069320;28;20232;-77
2021/07/18 07:28:44;;;;;;;16.80;15.68;;;24.90;99.90;;;;;;5068446;28;20225;-77
2021/07/18 07:31:15;;;;;;;17.00;16.02;;;25.00;99.90;;;;;;5072445;28;20632;-77
2021/07/18 07:33:42;;;;;;;10.25;9.65;;;25.20;99.90;;;;;;5074435;28;20227;-76
2021/07/18 07:36:09;;;;;;;6.93;6.63;;;25.40;99.90;;;;;;5071613;28;20193;-76
2021/07/18 07:38:36;;;;;;;12.88;12.13;;;25.60;99.90;;;;;;5068937;28;20224;-76
2021/07/18 07:41:03;;;;;;;7.18;6.68;;;25.70;99.90;;;;;;5077509;28;20216;-76
2021/07/18 07:43:30;;;;;;;5.60;4.18;;;25.80;99.90;;;;;;5088941;28;20231;-76
2021/07/18 07:45:59;;;;;;;4.53;3.55;;;25.90;99.90;;;;;;5086201;28;20258;-76
2021/07/18 07:51:08;;;;;;;6.93;6.43;;;25.90;99.90;;;;;;5070870;28;20276;-77
2021/07/18 07:53:35;;;;;;;5.75;4.75;;;25.70;99.90;;;;;;5071993;28;20205;-77
2021/07/18 07:58:43;;;;;;;4.88;4.68;;;25.50;99.90;;;;;;5077735;28;20225;-77
2021/07/18 08:01:14;;;;;;;7.18;3.85;;;25.80;99.90;;;;;;5077052;28;20198;-77
2021/07/18 08:03:41;;;;;;;3.22;2.97;;;26.10;99.90;;;;;;5074295;28;20240;-77
2021/07/18 08:08:49;;;;;;;3.13;2.85;;;26.30;99.90;;;;;;5075309;28;20298;-77
2021/07/18 08:11:16;;;;;;;2.67;2.28;;;26.00;99.90;;;;;;5083591;28;20204;-77
2021/07/18 08:13:44;;;;;;;3.83;3.58;;;25.90;99.90;;;;;;5083942;28;20240;-77
2021/07/18 08:16:12;;;;;;;2.95;2.67;;;26.00;99.90;;;;;;5079752;28;20229;-77
2021/07/18 08:18:40;;;;;;;3.58;3.15;;;26.20;99.90;;;;;;5080470;28;20204;-77
2021/07/18 08:21:14;;;;;;;3.35;3.15;;;26.60;99.90;;;;;;5078062;28;20205;-76
2021/07/18 08:23:41;;;;;;;3.33;3.03;;;27.00;99.90;;;;;;5079049;28;20205;-77
2021/07/18 08:26:08;;;;;;;3.42;2.25;;;27.00;99.90;;;;;;5084432;28;20200;-77
2021/07/18 08:36:43;;;;;;;1.52;1.40;;;27.60;99.90;;;;;;5058642;28;20266;-77
2021/07/18 08:39:10;;;;;;;1.92;1.70;;;27.90;99.90;;;;;;5069783;28;20208;-77
2021/07/18 08:41:43;;;;;;;2.55;1.70;;;28.10;99.90;;;;;;5077996;28;20205;-78
2021/07/18 08:44:12;;;;;;;2.53;1.50;;;28.30;99.90;;;;;;5076358;28;20201;-77
2021/07/18 08:46:41;;;;;;;2.13;1.90;;;28.50;99.90;;;;;;5074577;28;20228;-78
2021/07/18 08:49:09;;;;;;;3.83;2.20;;;28.60;99.90;;;;;;5069368;28;20252;-78
2021/07/18 08:51:44;;;;;;;1.90;1.60;;;28.60;99.90;;;;;;5072654;28;20197;-77
2021/07/18 08:56:56;;;;;;;1.83;1.65;;;28.80;99.90;;;;;;5066608;28;20573;-77
2021/07/18 08:59:23;;;;;;;2.47;1.60;;;29.00;99.90;;;;;;5067585;28;20198;-76
2021/07/18 09:01:52;;;;;;;1.85;1.73;;;29.30;99.90;;;;;;5073644;28;20202;-77
2021/07/18 09:04:19;;;;;;;3.13;1.80;;;29.60;99.90;;;;;;5071356;28;20283;-77
2021/07/18 09:06:48;;;;;;;4.45;2.00;;;29.90;99.90;;;;;;5071489;28;20649;-77
2021/07/18 09:09:18;;;;;;;3.15;2.53;;;29.60;99.90;;;;;;5069925;28;20279;-77
2021/07/18 09:17:35;;;;;;;3.97;2.10;;;29.10;99.90;;;;;;5068639;28;20595;-77
2021/07/18 09:20:14;;;;;;;2.75;2.13;;;28.80;99.90;;;;;;5079433;28;20244;-78
2021/07/18 09:22:41;;;;;;;4.00;2.03;;;29.00;99.90;;;;;;5069492;28;20243;-76
2021/07/18 09:27:49;;;;;;;2.55;2.25;;;29.00;99.90;;;;;;5067116;28;20201;-76
2021/07/18 09:30:18;;;;;;;3.95;2.22;;;29.10;99.90;;;;;;5070190;28;20226;-76
2021/07/18 09:32:49;;;;;;;4.03;2.60;;;28.90;99.90;;;;;;5070962;28;20212;-76
2021/07/18 09:35:18;;;;;;;5.75;2.80;;;29.20;99.90;;;;;;5072523;28;20201;-76
2021/07/18 09:37:48;;;;;;;3.97;2.50;;;29.20;99.90;;;;;;5065401;28;20202;-75
2021/07/18 09:40:17;;;;;;;9.50;4.10;;;29.30;99.90;;;;;;5064694;28;20206;-76
2021/07/18 09:42:46;;;;;;;9.40;3.65;;;29.20;99.90;;;;;;5070529;28;20553;-76
2021/07/18 09:45:18;;;;;;;9.77;3.78;;;28.80;99.90;;;;;;5073269;28;20266;-76
2021/07/18 09:48:00;;;;;;;7.55;3.45;;;28.70;99.90;;;;;;5071996;28;20202;-76
2021/07/18 09:50:33;;;;;;;16.10;3.95;;;28.70;99.90;;;;;;5070762;28;20260;-76
2021/07/18 09:53:12;;;;;;;5.80;3.17;;;28.50;99.90;;;;;;5069811;28;20200;-76
2021/07/18 09:55:54;;;;;;;9.70;3.08;;;28.50;99.90;;;;;;5071637;28;20208;-76
2021/07/18 09:58:22;;;;;;;7.28;3.60;;;28.50;99.90;;;;;;5071634;28;20258;-76
2021/07/18 10:00:49;;;;;;;9.38;3.20;;;28.70;99.90;;;;;;5076730;28;20208;-76
2021/07/18 10:05:06;;;;;;;4.95;3.13;;;29.30;99.90;;;;;;5091893;27;21101;-75
2021/07/18 10:07:36;;;;;;;6.07;2.72;;;29.60;99.90;;;;;;5074677;28;20229;-75
2021/07/18 10:10:05;;;;;;;5.38;2.60;;;29.40;99.90;;;;;;5065074;28;20231;-74
2021/07/18 10:12:34;;;;;;;7.20;2.88;;;29.30;99.90;;;;;;5074927;28;20201;-74
2021/07/18 10:15:01;;;;;;;4.72;2.53;;;29.30;99.90;;;;;;5073631;28;20206;-75
2021/07/18 10:17:30;;;;;;;4.28;2.20;;;29.30;99.90;;;;;;5078177;28;20197;-75
2021/07/18 10:19:57;;;;;;;11.23;2.88;;;29.20;99.90;;;;;;5077184;28;20193;-74
2021/07/18 10:22:28;;;;;;;8.25;3.40;;;29.30;99.90;;;;;;5076628;28;20201;-75
2021/07/18 10:24:56;;;;;;;5.82;2.75;;;29.30;99.90;;;;;;5073706;28;20216;-75
2021/07/18 10:27:24;;;;;;;5.68;2.25;;;29.20;99.90;;;;;;5067183;28;20279;-76
2021/07/18 10:32:35;;;;;;;3.42;2.80;;;29.50;99.90;;;;;;5065723;28;20232;-75
2021/07/18 10:35:04;;;;;;;5.50;2.13;;;29.60;99.90;;;;;;5073570;28;20212;-76
2021/07/18 10:37:40;;;;;;;5.88;2.00;;;29.70;99.90;;;;;;5073875;28;20221;-75
2021/07/18 10:40:13;;;;;;;3.95;2.00;;;29.70;99.90;;;;;;5063967;28;20854;-75
2021/07/18 10:42:40;;;;;;;2.20;2.00;;;29.60;99.90;;;;;;5069897;28;20269;-76
2021/07/18 10:45:19;;;;;;;3.97;2.20;;;29.50;99.90;;;;;;5067952;28;20205;-76
2021/07/18 10:48:05;;;;;;;6.18;2.40;;;29.60;99.90;;;;;;5081033;28;20194;-76
2021/07/18 10:50:58;;;;;;;2.88;2.22;;;29.60;99.90;;;;;;5073872;28;20590;-76
2021/07/18 10:53:35;;;;;;;4.70;2.78;;;29.70;99.90;;;;;;5072535;28;20224;-76
2021/07/18 10:56:04;;;;;;;5.50;2.67;;;29.80;99.90;;;;;;5062141;28;20228;-75
2021/07/18 10:58:53;;;;;;;6.68;3.30;;;29.90;99.90;;;;;;5065092;28;20702;-75
2021/07/18 11:01:35;;;;;;;5.63;2.63;;;29.80;99.90;;;;;;5059082;28;20194;-76
2021/07/18 11:04:04;;;;;;;4.35;2.88;;;29.80;99.90;;;;;;5069726;28;20718;-77
2021/07/18 11:06:40;;;;;;;3.55;2.45;;;29.50;99.90;;;;;;5070112;28;20206;-76
2021/07/18 11:09:22;;;;;;;4.82;1.90;;;29.50;99.90;;;;;;5073519;28;20201;-76
2021/07/18 11:11:51;;;;;;;2.30;2.10;;;29.50;99.90;;;;;;5065403;28;20271;-77
2021/07/18 11:14:23;;;;;;;3.13;2.25;;;29.60;99.90;;;;;;5071380;28;20668;-77
2021/07/18 11:16:52;;;;;;;3.05;2.45;;;29.20;99.90;;;;;;5058430;28;20256;-77
2021/07/18 11:19:59;;;;;;;3.92;2.55;;;29.00;99.90;;;;;;5056006;28;20206;-77
2021/07/18 11:23:02;;;;;;;4.95;2.40;;;28.50;99.90;;;;;;5060456;28;20202;-77
2021/07/18 11:25:48;;;;;;;6.85;2.40;;;28.20;99.90;;;;;;5050165;28;20229;-77
2021/07/18 11:28:51;;;;;;;8.45;3.10;;;28.20;99.90;;;;;;5048908;28;20228;-76
2021/07/18 11:31:37;;;;;;;4.47;2.60;;;28.10;99.90;;;;;;5055242;28;20232;-76
2021/07/18 11:34:09;;;;;;;3.90;2.78;;;28.20;99.90;;;;;;5052440;28;20237;-77
2021/07/18 11:36:55;;;;;;;4.57;2.58;;;28.10;99.90;;;;;;5061802;28;20237;-76
2021/07/18 11:39:26;;;;;;;5.63;3.67;;;27.90;99.90;;;;;;5048629;28;20213;-76
2021/07/18 11:41:56;;;;;;;6.88;2.78;;;27.60;99.90;;;;;;5066293;28;20277;-77
2021/07/18 11:44:29;;;;;;;3.13;2.72;;;27.50;99.90;;;;;;5061983;28;20288;-77
2021/07/18 11:47:01;;;;;;;6.38;3.60;;;27.50;99.90;;;;;;5061263;28;20234;-77
2021/07/18 11:49:33;;;;;;;9.38;3.58;;;27.50;99.90;;;;;;5058682;28;20544;-77
2021/07/18 11:52:02;;;;;;;4.53;2.78;;;27.50;99.90;;;;;;5054554;28;20264;-77
2021/07/18 11:54:29;;;;;;;4.03;2.72;;;27.40;99.90;;;;;;5053965;28;20201;-77
2021/07/18 11:56:59;;;;;;;8.25;2.70;;;27.40;99.90;;;;;;5054827;28;20209;-77
2021/07/18 11:59:28;;;;;;;6.43;3.60;;;27.40;99.90;;;;;;5059397;28;20605;-77
2021/07/18 12:01:57;;;;;;;4.05;2.92;;;27.40;99.90;;;;;;5061979;28;20275;-77
2021/07/18 12:04:25;;;;;;;3.80;3.30;;;27.20;99.90;;;;;;5060559;28;20279;-77
2021/07/18 12:06:54;;;;;;;5.00;3.38;;;27.30;99.90;;;;;;5067022;28;20224;-77
2021/07/18 12:09:23;;;;;;;3.38;3.08;;;27.30;99.90;;;;;;5062097;28;20259;-78
2021/07/18 12:11:54;;;;;;;3.50;2.42;;;27.30;99.90;;;;;;5061166;28;20245;-78
2021/07/18 12:14:23;;;;;;;4.30;2.72;;;27.30;99.90;;;;;;5060430;28;20206;-78
2021/07/18 12:16:54;;;;;;;4.38;2.72;;;27.30;99.90;;;;;;5050564;28;20242;-76
2021/07/18 12:19:25;;;;;;;3.63;3.33;;;27.30;99.90;;;;;;5062324;28;20260;-76
2021/07/18 12:21:52;;;;;;;3.22;2.90;;;27.30;99.90;;;;;;5061355;28;20205;-77
2021/07/18 12:27:11;;;;;;;6.65;3.03;;;27.20;99.90;;;;;;5054164;28;20618;-77
2021/07/18 12:29:44;;;;;;;4.95;3.00;;;27.30;99.90;;;;;;5054099;28;20206;-76
2021/07/18 12:37:36;;;;;;;3.47;2.90;;;27.40;99.90;;;;;;5058151;28;20209;-77
2021/07/18 12:40:05;;;;;;;3.65;3.22;;;27.50;99.90;;;;;;5055667;28;20744;-76
2021/07/18 12:42:34;;;;;;;4.78;2.85;;;27.50;99.90;;;;;;5053742;28;20198;-77
2021/07/18 12:45:20;;;;;;;9.32;3.20;;;27.50;99.90;;;;;;5051994;28;20288;-77
2021/07/18 12:47:48;;;;;;;7.60;4.10;;;27.60;99.90;;;;;;5057904;28;21007;-77
2021/07/18 12:53:06;;;;;;;4.75;3.35;;;27.50;99.90;;;;;;5053904;28;20203;-77
2021/07/18 13:01:05;;;;;;;3.90;3.35;;;27.50;99.90;;;;;;5060740;28;20212;-76
2021/07/18 13:06:16;;;;;;;3.67;3.28;;;27.60;99.90;;;;;;5057172;28;20212;-77
2021/07/18 13:11:37;;;;;;;6.00;3.70;;;27.60;99.90;;;;;;5057406;28;20198;-76
2021/07/18 13:14:21;;;;;;;5.28;3.97;;;27.50;99.90;;;;;;5051924;28;20202;-77
2021/07/18 13:16:51;;;;;;;4.00;3.67;;;27.50;99.90;;;;;;5053010;28;20213;-77
2021/07/18 13:24:43;;;;;;;4.15;3.67;;;27.60;99.90;;;;;;5056238;28;20234;-77
2021/07/18 13:32:41;;;;;;;6.28;3.95;;;27.60;99.90;;;;;;5064223;28;20400;-77
2021/07/18 13:40:37;;;;;;;8.10;4.03;;;27.80;99.90;;;;;;5049820;28;20210;-76
2021/07/18 13:48:35;;;;;;;6.57;3.40;;;28.00;99.90;;;;;;5048731;28;20198;-77
2021/07/18 13:56:26;;;;;;;7.45;4.07;;;28.20;99.90;;;;;;5047211;28;20201;-77
2021/07/18 14:01:38;;;;;;;5.20;3.75;;;28.20;99.90;;;;;;5049989;28;20236;-77
2021/07/18 14:09:36;;;;;;;3.53;3.22;;;28.10;99.90;;;;;;5056842;28;20205;-77
2021/07/18 14:20:19;;;;;;;3.83;3.38;;;28.00;99.90;;;;;;5049840;28;20289;-77
2021/07/18 14:22:47;;;;;;;7.32;4.00;;;28.00;99.90;;;;;;5055938;28;20267;-76
2021/07/18 14:25:15;;;;;;;5.47;3.50;;;28.00;99.90;;;;;;5055499;28;20221;-77
2021/07/18 14:27:44;;;;;;;3.60;3.20;;;28.10;99.90;;;;;;5059943;28;20209;-77
2021/07/18 14:33:02;;;;;;;3.83;3.42;;;28.30;99.90;;;;;;5059330;28;20726;-77
2021/07/18 14:35:39;;;;;;;4.72;3.50;;;28.30;99.90;;;;;;5048383;28;20206;-77
2021/07/18 14:51:34;;;;;;;5.10;3.78;;;28.20;99.90;;;;;;5063048;28;20255;-77
2021/07/18 15:04:46;;;;;;;7.00;4.40;;;28.20;99.90;;;;;;5048972;28;20268;-77
2021/07/18 15:07:14;;;;;;;4.15;3.85;;;28.10;99.90;;;;;;5062385;28;20232;-77
2021/07/18 15:09:41;;;;;;;3.90;3.22;;;28.10;99.90;;;;;;5055595;28;20233;-76
2021/07/18 15:12:09;;;;;;;4.15;3.85;;;28.10;99.90;;;;;;5052157;28;20225;-77
2021/07/18 15:14:36;;;;;;;4.10;3.58;;;28.10;99.90;;;;;;5050821;28;20198;-76
2021/07/18 15:17:04;;;;;;;4.43;4.10;;;28.00;99.90;;;;;;5050341;28;20194;-77
2021/07/18 15:19:31;;;;;;;5.30;4.80;;;27.90;99.90;;;;;;5048855;28;20203;-77
2021/07/18 15:21:58;;;;;;;4.18;3.88;;;28.00;99.90;;;;;;5059788;28;20214;-77
2021/07/18 15:24:26;;;;;;;4.78;4.20;;;27.90;99.90;;;;;;5061682;28;20252;-77
2021/07/18 15:26:53;;;;;;;4.82;4.18;;;27.90;99.90;;;;;;5067077;28;20202;-77
2021/07/18 15:29:20;;;;;;;4.15;3.75;;;27.90;99.90;;;;;;5048947;28;20681;-77
2021/07/18 15:31:47;;;;;;;4.90;4.28;;;27.90;99.90;;;;;;5055778;28;20260;-77
2021/07/18 15:34:14;;;;;;;7.00;3.55;;;27.90;99.90;;;;;;5057329;28;20237;-77
2021/07/18 15:36:41;;;;;;;4.65;3.95;;;27.80;99.90;;;;;;5049857;28;20694;-77
2021/07/18 15:39:08;;;;;;;4.40;4.10;;;27.90;99.90;;;;;;5056841;28;20202;-77
2021/07/18 15:41:36;;;;;;;5.03;4.30;;;28.00;99.90;;;;;;5060551;28;20209;-77
2021/07/18 15:44:04;;;;;;;4.10;3.78;;;28.00;99.90;;;;;;5053762;28;20227;-77
2021/07/18 15:46:32;;;;;;;5.72;4.40;;;28.00;99.90;;;;;;5051960;28;20198;-77
2021/07/18 15:48:59;;;;;;;5.13;4.63;;;28.00;99.90;;;;;;5056000;28;20224;-76
2021/07/18 15:51:26;;;;;;;4.53;4.22;;;28.00;99.90;;;;;;5062747;28;20233;-76
2021/07/18 15:53:53;;;;;;;8.60;4.88;;;28.00;99.90;;;;;;5056917;28;20205;-77
2021/07/18 15:56:21;;;;;;;4.65;4.25;;;28.00;99.90;;;;;;5053303;28;20203;-77
2021/07/18 15:58:50;;;;;;;4.05;3.75;;;28.10;99.90;;;;;;5056635;28;20225;-77
2021/07/18 16:01:17;;;;;;;6.60;4.50;;;28.10;99.90;;;;;;5060551;28;20205;-77
2021/07/18 16:03:44;;;;;;;6.32;4.65;;;28.10;99.90;;;;;;5065070;28;20943;-77
2021/07/18 16:06:11;;;;;;;6.00;4.57;;;28.00;99.90;;;;;;5056282;28;20252;-77
2021/07/18 16:08:37;;;;;;;9.15;4.70;;;27.90;99.90;;;;;;5053819;28;20672;-77
2021/07/18 16:11:04;;;;;;;4.68;4.28;;;27.80;99.90;;;;;;5048636;28;20249;-77
2021/07/18 16:13:31;;;;;;;4.85;4.45;;;27.70;99.90;;;;;;5064043;28;20255;-77
2021/07/18 16:16:00;;;;;;;4.90;4.35;;;27.70;99.90;;;;;;5050411;28;20205;-77
2021/07/18 16:18:26;;;;;;;5.65;4.85;;;27.70;99.90;;;;;;5051818;28;20225;-77
2021/07/18 16:20:54;;;;;;;5.55;5.05;;;27.70;99.90;;;;;;5054215;28;20611;-77
2021/07/18 16:23:22;;;;;;;4.38;4.07;;;27.80;99.90;;;;;;5052790;28;20270;-77
2021/07/18 16:25:51;;;;;;;4.75;4.30;;;27.70;99.90;;;;;;5061707;28;20265;-77
2021/07/18 16:28:18;;;;;;;5.13;4.25;;;27.70;99.90;;;;;;5050810;28;20202;-77
2021/07/18 16:30:44;;;;;;;4.85;4.45;;;27.70;99.90;;;;;;5051031;28;20277;-77
2021/07/18 16:33:13;;;;;;;6.68;5.10;;;27.70;99.90;;;;;;5054410;28;20206;-77
2021/07/18 16:35:40;;;;;;;4.85;4.40;;;27.70;99.90;;;;;;5058581;28;20206;-77
2021/07/18 16:38:06;;;;;;;6.85;3.72;;;27.70;99.90;;;;;;5059352;28;20206;-76
2021/07/18 16:40:33;;;;;;;5.85;4.22;;;27.60;99.90;;;;;;5061272;28;20229;-77
2021/07/18 16:43:00;;;;;;;8.63;4.22;;;27.60;99.90;;;;;;5056136;28;20205;-77
2021/07/18 16:45:27;;;;;;;5.38;4.15;;;27.50;99.90;;;;;;5054102;28;20218;-77
2021/07/18 16:47:54;;;;;;;6.88;4.80;;;27.40;99.90;;;;;;5048460;28;21267;-77
2021/07/18 16:50:23;;;;;;;5.55;4.22;;;27.40;99.90;;;;;;5048223;28;20199;-77
2021/07/18 16:52:50;;;;;;;7.43;4.22;;;27.40;99.90;;;;;;5047521;28;20210;-77
2021/07/18 16:55:16;;;;;;;5.00;4.50;;;27.50;99.90;;;;;;5064329;28;20236;-77
2021/07/18 16:57:43;;;;;;;5.57;4.78;;;27.50;99.90;;;;;;5054446;28;20210;-77
2021/07/18 17:00:11;;;;;;;4.60;4.20;;;27.50;99.90;;;;;;5053488;28;20240;-77
2021/07/18 17:02:38;;;;;;;5.43;4.82;;;27.40;99.90;;;;;;5067107;28;20202;-76
2021/07/18 17:05:06;;;;;;;4.72;3.92;;;27.40;99.90;;;;;;5053127;28;20272;-77
2021/07/18 17:07:35;;;;;;;5.85;4.60;;;27.50;99.90;;;;;;5053158;28;20210;-77
2021/07/18 17:10:01;;;;;;;4.53;4.13;;;27.60;99.90;;;;;;5052533;28;20225;-77
2021/07/18 17:12:28;;;;;;;4.38;4.03;;;27.60;99.90;;;;;;5052322;28;20198;-77
2021/07/18 17:14:55;;;;;;;4.60;4.20;;;27.60;99.90;;;;;;5060864;28;20202;-76
2021/07/18 17:17:22;;;;;;;4.38;3.97;;;27.50;99.90;;;;;;5047478;28;20260;-76
2021/07/18 17:19:49;;;;;;;5.70;4.28;;;27.50;99.90;;;;;;5055188;28;20348;-77
2021/07/18 17:22:16;;;;;;;4.57;4.18;;;27.40;99.90;;;;;;5063517;28;20202;-77
2021/07/18 17:24:45;;;;;;;7.47;4.60;;;27.30;99.90;;;;;;5057168;28;20294;-77
2021/07/18 17:27:13;;;;;;;4.85;4.28;;;27.20;99.90;;;;;;5061140;28;20205;-77
2021/07/18 17:29:40;;;;;;;4.70;4.22;;;27.20;99.90;;;;;;5059813;28;20206;-76
2021/07/18 17:32:09;;;;;;;4.70;4.30;;;27.10;99.90;;;;;;5051197;28;20206;-77
2021/07/18 17:34:37;;;;;;;6.18;4.20;;;27.10;99.90;;;;;;5048033;28;20206;-77
2021/07/18 17:37:05;;;;;;;7.53;3.95;;;27.10;99.90;;;;;;5053593;28;20673;-77
2021/07/18 17:39:33;;;;;;;8.40;4.55;;;27.10;99.90;;;;;;5057740;28;20197;-76
2021/07/18 17:42:01;;;;;;;4.80;4.43;;;27.10;99.90;;;;;;5053541;28;20211;-77
2021/07/18 17:44:28;;;;;;;9.35;6.75;;;27.10;99.90;;;;;;5053153;28;20203;-77
2021/07/18 17:46:55;;;;;;;5.03;4.10;;;27.10;99.90;;;;;;5052955;28;20233;-77
2021/07/18 17:49:22;;;;;;;4.35;3.95;;;27.00;99.90;;;;;;5056912;28;20206;-77
2021/07/18 17:51:49;;;;;;;4.18;3.88;;;26.90;99.90;;;;;;5056954;28;20232;-76
2021/07/18 17:54:16;;;;;;;10.50;4.07;;;26.90;99.90;;;;;;5055265;28;20201;-76
2021/07/18 17:56:43;;;;;;;5.05;4.13;;;26.90;99.90;;;;;;5064702;28;20260;-77
2021/07/18 17:59:13;;;;;;;5.45;4.13;;;26.90;99.90;;;;;;5061891;28;20206;-76
2021/07/18 18:01:40;;;;;;;3.72;3.42;;;26.90;99.90;;;;;;5061266;28;20206;-77
2021/07/18 18:04:07;;;;;;;4.07;3.78;;;27.00;99.90;;;;;;5047608;28;20287;-77
2021/07/18 18:06:34;;;;;;;6.70;3.60;;;26.90;99.90;;;;;;5061658;28;20247;-76